createdAt,value
2023-01-13T00:01:54.945Z,99612.25
2023-01-13T00:04:25.863Z,99611.46
2023-01-13T00:06:56.848Z,99614.77
2023-01-13T00:09:27.736Z,99613.94
2023-01-13T00:11:58.529Z,99610.97
2023-01-13T00:14:30.206Z,99608.32
2023-01-13T00:17:01.036Z,99612.95
2023-01-13T00:19:31.940Z,99607.61
2023-01-13T00:22:02.627Z,99609.48
2023-01-13T00:24:33.304Z,99609.48
2023-01-13T00:27:04.026Z,99606.60
2023-01-13T00:29:34.747Z,99607.85
2023-01-13T00:32:05.763Z,99604.98
2023-01-13T00:34:36.647Z,99600.38
2023-01-13T00:37:08.231Z,99601.25
2023-01-13T00:39:39.031Z,99598.29
2023-01-13T00:42:27.638Z,99597.95
2023-01-13T00:44:58.320Z,99598.55
2023-01-13T00:47:29.062Z,99600.05
2023-01-13T00:49:59.767Z,99596.59
2023-01-13T00:52:32.746Z,99595.98
2023-01-13T00:55:03.597Z,99593.73
2023-01-13T00:57:35.237Z,99592.89
2023-01-13T01:00:07.135Z,99592.66
2023-01-13T01:02:38.070Z,99593.86
2023-01-13T01:05:11.871Z,99592.06
2023-01-13T01:07:42.653Z,99597.00
2023-01-13T01:10:14.269Z,99597.33
2023-01-13T01:12:45.124Z,99592.49
2023-01-13T01:15:15.819Z,99595.67
2023-01-13T01:17:46.532Z,99591.45
2023-01-13T01:20:17.873Z,99594.03
2023-01-13T01:22:48.598Z,99591.12
2023-01-13T01:25:19.495Z,99591.49
2023-01-13T01:27:53.023Z,99597.11
2023-01-13T01:30:23.762Z,99592.07
2023-01-13T01:32:54.636Z,99590.80
2023-01-13T01:35:25.937Z,99589.30
2023-01-13T01:37:56.748Z,99587.83
2023-01-13T01:40:29.364Z,99584.86
2023-01-13T01:43:16.095Z,99584.04
2023-01-13T01:45:47.063Z,99589.48
2023-01-13T01:48:18.015Z,99587.45
2023-01-13T01:50:49.053Z,99585.46
2023-01-13T01:53:23.901Z,99589.02
2023-01-13T01:55:56.031Z,99587.94
2023-01-13T01:58:32.314Z,99588.05
2023-01-13T02:01:03.245Z,99585.08
2023-01-13T02:03:36.408Z,99579.48
2023-01-13T02:06:08.231Z,99574.25
2023-01-13T02:08:41.317Z,99577.88
2023-01-13T02:11:52.396Z,99568.92
2023-01-13T02:14:26.685Z,99564.47
2023-01-13T02:17:17.356Z,99560.80
2023-01-13T02:19:59.928Z,99560.41
2023-01-13T02:22:47.703Z,99560.85
2023-01-13T02:25:51.351Z,99553.55
2023-01-13T02:29:09.217Z,99549.96
2023-01-13T02:31:45.748Z,99541.45
2023-01-13T02:34:21.740Z,99544.86
2023-01-13T02:36:59.519Z,99538.23
2023-01-13T02:39:35.873Z,99538.73
2023-01-13T02:42:28.168Z,99537.58
2023-01-13T02:45:05.567Z,99532.25
2023-01-13T02:47:40.561Z,99528.52
2023-01-13T02:50:17.501Z,99530.11
2023-01-13T02:52:52.392Z,99525.10
2023-01-13T02:55:27.463Z,99522.02
2023-01-13T02:57:59.713Z,99521.91
2023-01-13T03:00:31.129Z,99521.26
2023-01-13T03:03:01.881Z,99518.93
2023-01-13T03:05:34.290Z,99518.61
2023-01-13T03:08:15.568Z,99517.73
2023-01-13T03:11:02.878Z,99523.98
2023-01-13T03:13:57.527Z,99522.38
2023-01-13T03:16:38.526Z,99526.47
2023-01-13T03:19:20.626Z,99523.48
2023-01-13T03:21:58.139Z,99526.67
2023-01-13T03:24:36.423Z,99532.39
2023-01-13T03:27:13.697Z,99527.60
2023-01-13T03:29:50.422Z,99522.83
2023-01-13T03:32:27.929Z,99524.91
2023-01-13T03:35:05.270Z,99521.44
2023-01-13T03:37:38.612Z,99519.95
2023-01-13T03:40:15.513Z,99521.10
2023-01-13T03:43:05.811Z,99518.69
2023-01-13T03:45:41.030Z,99512.63
2023-01-13T03:48:17.573Z,99511.46
2023-01-13T03:50:51.785Z,99513.23
2023-01-13T03:53:28.083Z,99515.98
2023-01-13T03:56:04.193Z,99511.64
2023-01-13T03:58:38.823Z,99517.64
2023-01-13T04:01:15.932Z,99512.01
2023-01-13T04:03:55.026Z,99506.89
2023-01-13T04:06:32.934Z,99511.17
2023-01-13T04:09:10.121Z,99509.54
2023-01-13T04:11:45.395Z,99516.29
2023-01-13T04:14:17.460Z,99508.95
2023-01-13T04:16:48.601Z,99504.45
2023-01-13T04:19:19.403Z,99504.84
2023-01-13T04:21:50.010Z,99502.81
2023-01-13T04:24:20.679Z,99505.73
2023-01-13T04:26:51.410Z,99508.02
2023-01-13T04:29:22.198Z,99506.48
2023-01-13T04:31:52.962Z,99504.36
2023-01-13T04:34:23.651Z,99506.77
2023-01-13T04:36:54.404Z,99509.85
2023-01-13T04:39:25.202Z,99509.52
2023-01-13T04:41:59.347Z,99508.84
2023-01-13T04:44:35.145Z,99507.13
2023-01-13T04:47:06.199Z,99500.62
2023-01-13T04:49:36.924Z,99506.98
2023-01-13T04:52:08.121Z,99504.73
2023-01-13T04:54:38.831Z,99503.36
2023-01-13T04:57:09.418Z,99503.96
2023-01-13T04:59:42.047Z,99508.25
2023-01-13T05:02:15.086Z,99511.38
2023-01-13T05:04:46.075Z,99510.73
2023-01-13T05:07:18.445Z,99516.45
2023-01-13T05:09:49.231Z,99511.01
2023-01-13T05:12:37.417Z,99509.13
2023-01-13T05:15:28.265Z,99507.14
2023-01-13T05:17:57.349Z,99509.71
2023-01-13T05:20:28.663Z,99509.77
2023-01-13T05:23:16.657Z,99511.58
2023-01-13T05:25:49.944Z,99515.26
2023-01-13T05:28:20.673Z,99512.64
2023-01-13T05:30:55.141Z,99515.79
2023-01-13T05:33:26.143Z,99510.09
2023-01-13T05:35:56.982Z,99519.35
2023-01-13T05:38:27.637Z,99518.59
2023-01-13T05:41:19.661Z,99512.68
2023-01-13T05:43:50.273Z,99512.08
2023-01-13T05:46:21.341Z,99512.80
2023-01-13T05:48:52.109Z,99511.75
2023-01-13T05:51:26.432Z,99516.10
2023-01-13T05:53:59.231Z,99515.11
2023-01-13T05:56:28.272Z,99519.29
2023-01-13T05:58:58.962Z,99515.27
2023-01-13T06:01:29.574Z,99513.29
2023-01-13T06:04:00.376Z,99514.01
2023-01-13T06:06:31.068Z,99521.46
2023-01-13T06:09:01.736Z,99522.12
2023-01-13T06:11:33.333Z,99513.88
2023-01-13T06:14:04.073Z,99517.40
2023-01-13T06:16:34.821Z,99522.02
2023-01-13T06:19:08.927Z,99518.40
2023-01-13T06:21:40.258Z,99515.64
2023-01-13T06:24:11.851Z,99521.63
2023-01-13T06:26:43.244Z,99515.63
2023-01-13T06:29:16.812Z,99526.14
2023-01-13T06:31:47.592Z,99523.38
2023-01-13T06:34:18.477Z,99523.02
2023-01-13T06:36:53.268Z,99527.69
2023-01-13T06:39:29.311Z,99520.84
2023-01-13T06:42:18.402Z,99521.61
2023-01-13T06:44:50.403Z,99521.09
2023-01-13T06:47:22.316Z,99519.80
2023-01-13T06:49:53.436Z,99523.27
2023-01-13T06:52:24.925Z,99519.58
2023-01-13T06:54:55.635Z,99523.20
2023-01-13T06:57:26.375Z,99515.81
2023-01-13T06:59:57.300Z,99521.98
2023-01-13T07:02:28.587Z,99521.27
2023-01-13T07:04:59.469Z,99521.23
2023-01-13T07:07:30.089Z,99524.66
2023-01-13T07:10:00.824Z,99529.04
2023-01-13T07:12:51.486Z,99529.94
2023-01-13T07:15:20.556Z,99526.17
2023-01-13T07:17:53.988Z,99527.78
2023-01-13T07:20:24.628Z,99524.34
2023-01-13T07:22:58.731Z,99529.67
2023-01-13T07:25:29.507Z,99528.53
2023-01-13T07:28:01.567Z,99524.08
2023-01-13T07:30:32.231Z,99519.52
2023-01-13T07:33:02.901Z,99518.86
2023-01-13T07:35:33.503Z,99514.95
2023-01-13T07:38:04.222Z,99518.36
2023-01-13T07:40:34.888Z,99523.10
2023-01-13T07:43:23.628Z,99519.09
2023-01-13T07:45:58.845Z,99517.37
2023-01-13T07:48:30.805Z,99521.12
2023-01-13T07:51:04.354Z,99520.86
2023-01-13T07:53:35.730Z,99525.48
2023-01-13T07:56:09.317Z,99528.40
2023-01-13T07:58:40.327Z,99531.20
2023-01-13T08:01:13.017Z,99531.70
2023-01-13T08:03:44.176Z,99537.58
2023-01-13T08:06:15.242Z,99536.20
2023-01-13T08:08:46.246Z,99529.33
2023-01-13T08:11:16.891Z,99530.26
2023-01-13T08:13:47.551Z,99526.86
2023-01-13T08:16:18.863Z,99523.55
2023-01-13T08:18:49.605Z,99522.57
2023-01-13T08:21:20.459Z,99526.96
2023-01-13T08:23:51.209Z,99522.02
2023-01-13T08:26:22.435Z,99522.41
2023-01-13T08:28:53.195Z,99526.74
2023-01-13T08:31:23.884Z,99524.27
2023-01-13T08:33:54.791Z,99518.80
2023-01-13T08:36:26.320Z,99519.85
2023-01-13T08:38:57.123Z,99517.09
2023-01-13T08:41:41.759Z,99519.89
2023-01-13T08:44:10.883Z,99523.20
2023-01-13T08:46:42.787Z,99514.54
2023-01-13T08:49:13.440Z,99518.80
2023-01-13T08:51:44.171Z,99520.59
2023-01-13T08:54:15.267Z,99517.92
2023-01-13T08:56:47.023Z,99513.50
2023-01-13T08:59:19.937Z,99513.11
2023-01-13T09:01:50.708Z,99520.70
2023-01-13T09:04:23.603Z,99524.05
2023-01-13T09:06:54.905Z,99533.80
2023-01-13T09:09:27.739Z,99536.06
2023-01-13T09:12:15.806Z,99538.75
2023-01-13T09:14:46.520Z,99543.50
2023-01-13T09:17:18.720Z,99544.50
2023-01-13T09:19:49.425Z,99548.96
2023-01-13T09:22:21.017Z,99587.16
2023-01-13T09:24:51.851Z,99656.85
2023-01-13T09:27:22.953Z,99664.09
2023-01-13T09:29:53.692Z,99669.66
2023-01-13T09:32:24.333Z,99674.35
2023-01-13T09:35:01.087Z,99680.77
2023-01-13T09:37:34.129Z,99683.08
2023-01-13T09:40:06.516Z,99679.67
2023-01-13T09:43:02.499Z,99675.98
2023-01-13T09:45:40.332Z,99667.19
2023-01-13T09:48:19.545Z,99676.61
2023-01-13T09:51:01.368Z,99668.75
2023-01-13T09:53:34.799Z,99673.35
2023-01-13T09:56:06.284Z,99695.30
2023-01-13T09:58:36.944Z,99693.35
2023-01-13T10:01:21.737Z,99688.52
2023-01-13T10:03:52.521Z,99689.49
2023-01-13T10:06:31.265Z,99689.80
2023-01-13T10:09:02.279Z,99689.72
2023-01-13T10:11:56.631Z,99687.52
2023-01-13T10:14:35.504Z,99684.88
2023-01-13T10:17:13.397Z,99685.94
2023-01-13T10:19:49.754Z,99689.35
2023-01-13T10:22:41.645Z,99690.77
2023-01-13T10:25:28.681Z,99688.60
2023-01-13T10:28:09.990Z,99676.98
2023-01-13T10:30:42.854Z,99671.26
2023-01-13T10:33:17.542Z,99663.08
2023-01-13T10:35:57.792Z,99657.02
2023-01-13T10:38:31.227Z,99646.48
2023-01-13T10:41:03.829Z,99637.69
2023-01-13T10:43:34.542Z,99629.02
2023-01-13T10:46:11.297Z,99630.11
2023-01-13T10:48:44.230Z,99626.50
2023-01-13T10:51:23.197Z,99623.45
2023-01-13T10:53:57.909Z,99620.94
2023-01-13T10:56:31.594Z,99617.70
2023-01-13T10:59:18.514Z,99620.88
2023-01-13T11:02:03.889Z,99621.04
2023-01-13T11:04:41.199Z,99611.70
2023-01-13T11:07:28.163Z,99612.02
2023-01-13T11:10:22.143Z,99609.88
2023-01-13T11:13:03.658Z,99618.52
2023-01-13T11:15:44.556Z,99635.36
2023-01-13T11:18:24.547Z,99643.66
2023-01-13T11:20:56.850Z,99650.95
2023-01-13T11:23:35.734Z,99647.30
2023-01-13T11:26:13.182Z,99633.13
2023-01-13T11:28:53.167Z,99634.61
2023-01-13T11:31:30.540Z,99641.33
2023-01-13T11:34:05.828Z,99648.23
2023-01-13T11:36:46.112Z,99644.61
2023-01-13T11:39:24.896Z,99649.18
2023-01-13T11:42:17.173Z,99644.69
2023-01-13T11:44:53.268Z,99648.98
2023-01-13T11:47:25.947Z,99650.91
2023-01-13T11:49:57.026Z,99660.38
2023-01-13T11:52:45.553Z,99659.48
2023-01-13T11:55:30.625Z,99656.58
2023-01-13T11:58:38.741Z,99651.12
2023-01-13T12:01:40.821Z,99648.27
2023-01-13T12:04:27.782Z,99652.05
2023-01-13T12:07:13.096Z,99650.10
2023-01-13T12:09:58.901Z,99601.95
2023-01-13T12:12:47.502Z,99589.04
2023-01-13T12:15:46.399Z,99633.89
2023-01-13T12:18:39.217Z,99637.27
2023-01-13T12:21:20.033Z,99637.73
2023-01-13T12:24:02.482Z,99643.01
2023-01-13T12:26:39.968Z,99635.25
2023-01-13T12:29:16.055Z,99631.10
2023-01-13T12:31:48.742Z,99624.96
2023-01-13T12:34:32.849Z,99624.11
2023-01-13T12:37:13.729Z,99624.66
2023-01-13T12:39:54.094Z,99629.54
2023-01-13T12:42:51.435Z,99622.89
2023-01-13T12:45:30.933Z,99621.45
2023-01-13T12:48:02.382Z,99620.84
2023-01-13T12:51:00.648Z,99629.09
2023-01-13T12:53:36.739Z,99637.29
2023-01-13T12:56:39.873Z,99639.60
2023-01-13T12:59:40.070Z,99638.63
2023-01-13T13:02:36.104Z,99643.66
2023-01-13T13:05:42.061Z,99640.45
2023-01-13T13:08:23.777Z,99641.44
2023-01-13T13:11:37.074Z,99637.91
2023-01-13T13:14:11.568Z,99638.57
2023-01-13T13:17:01.177Z,99635.28
2023-01-13T13:19:49.940Z,99638.92
2023-01-13T13:22:38.608Z,99641.14
2023-01-13T13:25:28.947Z,99642.34
2023-01-13T13:28:23.796Z,99643.17
2023-01-13T13:31:09.653Z,99648.67
2023-01-13T13:33:54.690Z,99643.56
2023-01-13T13:36:45.848Z,99651.86
2023-01-13T13:39:41.030Z,99654.06
2023-01-13T13:42:51.267Z,99650.98
2023-01-13T13:45:42.419Z,99656.48
2023-01-13T13:48:28.794Z,99659.29
2023-01-13T13:51:02.667Z,99656.48
2023-01-13T13:53:37.375Z,99657.10
2023-01-13T13:56:20.680Z,99657.86
2023-01-13T13:58:52.363Z,99660.45
2023-01-13T14:01:28.333Z,99666.61
2023-01-13T14:04:12.933Z,99667.64
2023-01-13T14:06:52.606Z,99659.14
2023-01-13T14:09:24.676Z,99654.02
2023-01-13T14:12:01.415Z,99649.56
2023-01-13T14:14:32.410Z,99648.63
2023-01-13T14:17:05.449Z,99645.01
2023-01-13T14:19:40.312Z,99649.29
2023-01-13T14:22:17.951Z,99654.55
2023-01-13T14:24:55.606Z,99652.46
2023-01-13T14:27:28.638Z,99658.48
2023-01-13T14:30:02.025Z,99667.11
2023-01-13T14:32:37.244Z,99672.80
2023-01-13T14:35:10.688Z,99677.09
2023-01-13T14:37:42.791Z,99683.94
2023-01-13T14:40:46.501Z,99689.65
2023-01-13T14:43:19.766Z,99691.72
2023-01-13T14:46:01.584Z,99700.65
2023-01-13T14:48:35.927Z,99702.98
2023-01-13T14:51:10.728Z,99708.08
2023-01-13T14:53:46.927Z,99707.89
2023-01-13T14:56:43.466Z,99708.63
2023-01-13T14:59:42.499Z,99719.55
2023-01-13T15:02:46.269Z,99719.59
2023-01-13T15:05:35.426Z,99728.16
2023-01-13T15:08:18.543Z,99725.23
2023-01-13T15:10:52.693Z,99738.08
2023-01-13T15:13:35.313Z,99758.20
2023-01-13T15:16:09.077Z,99776.13
2023-01-13T15:18:41.213Z,99782.51
2023-01-13T15:21:12.732Z,99784.46
2023-01-13T15:23:47.594Z,99790.42
2023-01-13T15:26:24.837Z,99800.80
2023-01-13T15:28:57.318Z,99802.89
2023-01-13T15:31:28.917Z,99792.52
2023-01-13T15:34:00.764Z,99799.88
2023-01-13T15:36:33.455Z,99807.43
2023-01-13T15:39:04.711Z,99802.48
2023-01-13T15:41:53.039Z,99795.31
2023-01-13T15:44:41.390Z,99793.30
2023-01-13T15:47:14.654Z,99796.92
2023-01-13T15:49:47.610Z,99788.21
2023-01-13T15:52:22.684Z,99791.37
2023-01-13T15:54:54.635Z,99794.16
2023-01-13T15:57:28.375Z,99787.01
2023-01-13T16:00:02.550Z,99788.56
2023-01-13T16:02:53.402Z,99803.36
2023-01-13T16:05:24.964Z,99805.27
2023-01-13T16:07:55.602Z,99803.58
2023-01-13T16:10:28.904Z,99802.78
2023-01-13T16:12:59.550Z,99802.13
2023-01-13T16:15:30.546Z,99795.95
2023-01-13T16:18:03.509Z,99793.26
2023-01-13T16:20:34.474Z,99788.48
2023-01-13T16:23:05.606Z,99792.01
2023-01-13T16:25:36.581Z,99787.30
2023-01-13T16:28:07.242Z,99796.87
2023-01-13T16:30:40.447Z,99806.10
2023-01-13T16:33:11.233Z,99811.99
2023-01-13T16:36:09.263Z,99810.56
2023-01-13T16:38:32.520Z,99808.98
2023-01-13T16:41:03.244Z,99813.07
2023-01-13T16:43:34.586Z,99815.10
2023-01-13T16:46:10.370Z,99821.73
2023-01-13T16:48:41.115Z,99826.72
2023-01-13T16:51:11.872Z,99828.02
2023-01-13T16:53:42.549Z,99833.23
2023-01-13T16:56:33.464Z,99841.77
2023-01-13T16:59:06.060Z,99841.40
2023-01-13T17:01:40.013Z,99839.95
2023-01-13T17:04:17.130Z,99846.15
2023-01-13T17:06:55.387Z,99846.86
2023-01-13T17:09:28.103Z,99854.20
2023-01-13T17:11:59.860Z,99860.13
2023-01-13T17:14:30.590Z,99871.48
2023-01-13T17:17:01.340Z,99870.61
2023-01-13T17:19:32.008Z,99868.41
2023-01-13T17:22:02.753Z,99870.48
2023-01-13T17:24:35.128Z,99877.19
2023-01-13T17:27:06.284Z,99877.71
2023-01-13T17:29:37.296Z,99883.90
2023-01-13T17:32:08.472Z,99881.58
2023-01-13T17:34:40.237Z,99879.56
2023-01-13T17:37:13.719Z,99880.83
2023-01-13T17:39:46.468Z,99880.05
2023-01-13T17:42:17.730Z,99877.45
2023-01-13T17:44:48.631Z,99882.33
2023-01-13T17:47:19.483Z,99888.34
2023-01-13T17:49:50.169Z,99890.77
2023-01-13T17:52:21.364Z,99900.84
2023-01-13T17:54:52.815Z,99904.80
2023-01-13T17:57:23.857Z,99911.60
2023-01-13T17:59:54.657Z,99922.64
2023-01-13T18:02:26.364Z,99919.41
2023-01-13T18:04:57.075Z,99930.27
2023-01-13T18:07:27.756Z,99937.40
2023-01-13T18:09:58.614Z,99943.47
2023-01-13T18:12:29.678Z,99939.80
2023-01-13T18:15:00.383Z,99953.86
2023-01-13T18:17:31.138Z,99957.02
2023-01-13T18:20:19.403Z,99950.46
2023-01-13T18:23:07.516Z,99959.35
2023-01-13T18:25:57.830Z,99953.09
2023-01-13T18:28:28.744Z,99956.42
2023-01-13T18:30:59.589Z,99952.73
2023-01-13T18:33:30.304Z,99951.56
2023-01-13T18:36:00.961Z,99950.59
2023-01-13T18:38:31.708Z,99956.21
2023-01-13T18:41:22.965Z,99955.64
2023-01-13T18:43:53.650Z,99953.70
2023-01-13T18:46:24.346Z,99955.48
2023-01-13T18:48:55.106Z,99956.75
2023-01-13T18:51:25.828Z,99957.34
2023-01-13T18:53:56.421Z,99949.75
2023-01-13T18:56:27.866Z,99951.07
2023-01-13T18:58:59.153Z,99939.92
2023-01-13T19:01:30.280Z,99951.24
2023-01-13T19:04:03.781Z,99954.12
2023-01-13T19:06:35.360Z,99959.73
2023-01-13T19:09:08.667Z,99961.66
2023-01-13T19:11:39.344Z,99962.24
2023-01-13T19:14:10.012Z,99957.42
2023-01-13T19:16:40.750Z,99961.47
2023-01-13T19:19:11.707Z,99964.16
2023-01-13T19:21:42.462Z,99965.73
2023-01-13T19:24:13.226Z,99967.49
2023-01-13T19:26:43.806Z,99972.92
2023-01-13T19:29:14.557Z,99977.48
2023-01-13T19:31:45.225Z,99982.47
2023-01-13T19:34:15.886Z,99981.80
2023-01-13T19:36:46.493Z,99978.33
2023-01-13T19:39:17.310Z,99990.67
2023-01-13T19:42:05.695Z,99995.41
2023-01-13T19:44:54.396Z,99996.89
2023-01-13T19:47:25.049Z,100002.61
2023-01-13T19:49:55.867Z,100007.39
2023-01-13T19:52:26.609Z,100001.69
2023-01-13T19:54:57.749Z,100009.87
2023-01-13T19:57:28.339Z,100009.55
2023-01-13T19:59:58.916Z,100015.51
2023-01-13T20:02:31.505Z,100013.57
2023-01-13T20:05:01.905Z,100017.17
2023-01-13T20:07:35.024Z,100017.55
2023-01-13T20:10:07.194Z,100021.48
2023-01-13T20:12:37.874Z,100033.77
2023-01-13T20:15:10.244Z,100036.74
2023-01-13T20:17:41.609Z,100040.12
2023-01-13T20:20:14.982Z,100046.95
2023-01-13T20:22:45.629Z,100049.63
2023-01-13T20:25:17.569Z,100051.77
2023-01-13T20:27:49.201Z,100055.55
2023-01-13T20:30:20.126Z,100060.38
2023-01-13T20:32:50.913Z,100062.37
2023-01-13T20:35:22.157Z,100064.52
2023-01-13T20:37:53.010Z,100080.60
2023-01-13T20:40:24.408Z,100083.09
2023-01-13T20:42:55.036Z,100084.48
2023-01-13T20:45:26.139Z,100081.73
2023-01-13T20:47:57.501Z,100077.15
2023-01-13T20:50:28.310Z,100077.16
2023-01-13T20:52:58.931Z,100079.23
2023-01-13T20:55:29.606Z,100084.74
2023-01-13T20:58:00.222Z,100083.99
2023-01-13T21:00:30.977Z,100082.52
2023-01-13T21:03:01.818Z,100084.45
2023-01-13T21:05:33.319Z,100086.70
2023-01-13T21:08:04.220Z,100093.09
2023-01-13T21:10:34.892Z,100098.83
2023-01-13T21:13:23.544Z,100100.50
2023-01-13T21:15:55.425Z,100106.38
2023-01-13T21:18:43.527Z,100107.21
2023-01-13T21:21:14.259Z,100107.47
2023-01-13T21:23:47.174Z,100110.48
2023-01-13T21:26:19.511Z,100115.19
2023-01-13T21:28:50.820Z,100119.63
2023-01-13T21:31:21.515Z,100123.17
2023-01-13T21:33:56.680Z,100125.34
2023-01-13T21:36:28.085Z,100124.19
2023-01-13T21:39:00.449Z,100125.52
2023-01-13T21:41:48.460Z,100131.36
2023-01-13T21:44:38.411Z,100138.80
2023-01-13T21:47:34.434Z,100142.35
2023-01-13T21:50:08.939Z,100150.45
2023-01-13T21:52:42.657Z,100152.96
2023-01-13T21:55:20.518Z,100153.65
2023-01-13T21:57:52.641Z,100154.00
2023-01-13T22:00:25.347Z,100155.77
2023-01-13T22:02:56.198Z,100155.77
2023-01-13T22:05:27.832Z,100152.75
2023-01-13T22:07:58.779Z,100149.98
2023-01-13T22:10:31.608Z,100153.21
2023-01-13T22:13:21.427Z,100160.27
2023-01-13T22:15:52.127Z,100166.58
2023-01-13T22:18:26.383Z,100168.17
2023-01-13T22:21:01.141Z,100170.19
2023-01-13T22:23:32.119Z,100177.45
2023-01-13T22:26:07.653Z,100177.73
2023-01-13T22:28:42.957Z,100180.05
2023-01-13T22:31:16.200Z,100183.33
2023-01-13T22:33:48.314Z,100174.14
2023-01-13T22:36:18.971Z,100175.89
2023-01-13T22:38:49.635Z,100179.33
2023-01-13T22:41:20.328Z,100178.41
2023-01-13T22:43:51.019Z,100180.11
2023-01-13T22:46:22.892Z,100179.54
2023-01-13T22:48:55.781Z,100180.01
2023-01-13T22:51:26.547Z,100179.27
2023-01-13T22:53:57.821Z,100184.45
2023-01-13T22:56:29.280Z,100184.48
2023-01-13T22:59:01.635Z,100189.71
2023-01-13T23:01:33.882Z,100195.48
2023-01-13T23:04:05.894Z,100201.31
2023-01-13T23:06:37.052Z,100205.48
2023-01-13T23:09:07.814Z,100208.31
2023-01-13T23:11:38.776Z,100210.57
2023-01-13T23:14:11.919Z,100212.91
2023-01-13T23:16:43.089Z,100209.42
2023-01-13T23:19:14.476Z,100214.04
2023-01-13T23:21:45.111Z,100214.98
2023-01-13T23:24:15.786Z,100217.16
2023-01-13T23:26:46.522Z,100212.82
2023-01-13T23:29:17.234Z,100208.16
2023-01-13T23:31:48.244Z,100212.34
2023-01-13T23:34:18.835Z,100208.34
2023-01-13T23:36:49.532Z,100216.05
2023-01-13T23:39:20.106Z,100223.02
2023-01-13T23:41:50.873Z,100227.19
2023-01-13T23:44:21.543Z,100229.63
2023-01-13T23:46:52.253Z,100234.81
2023-01-13T23:49:22.935Z,100227.77
2023-01-13T23:51:54.466Z,100230.15
2023-01-13T23:54:25.544Z,100235.57
2023-01-13T23:56:57.519Z,100238.37
2023-01-13T23:59:28.183Z,100223.18
